Mount Pleasant, SC (29464)

2:48 AM EST on December 08, 2016 (GMT -0500)
Snee Farm | | Change Station

Elev 22 ft 32.84 °N, 79.84 °W | Updated 3 minutes ago

Overcast
Overcast
52.2 °F
Feels Like 52.2 °F
N
0.0
Wind Variable Wind from East

Today
High -- | Low -- °F
--% Chance of Precip.
Yesterday
High -- | Low -- °F
Precip. -- in
Pressure 30.07 in
Visibility 8.0 miles
Clouds Few 2000 ft
Overcast 3500 ft
Dew Point 52 °F
Humidity 98%
Rainfall 0.00 in
Snow Depth Not available.
7:09 AM 5:13 PM
First Quarter, 61% visible
METAR KCHS 080656Z 00000KT 8SM FEW020 OVC035 12/11 A3007 RMK AO2 SLP182 T01220106
Pressure 30.07 in
Visibility 8.0 miles
Clouds Few 2000 ft
Overcast 3500 ft
Dew Point 52 °F
Humidity 98%
Rainfall 0.00 in
Snow Depth Not available.
7:09 AM 5:13 PM
First Quarter, 61% visible
METAR KCHS 080656Z 00000KT 8SM FEW020 OVC035 12/11 A3007 RMK AO2 SLP182 T01220106

10-Day Weather Forecast

Almanac

Astronomy

Dec. 08, 2016 Rise Set
Actual Time
Civil Twilight
Nautical Twilight
Astronomical Twilight
Moon
Length of Visible Light
Length of Day
Tomorrow will be .
, % of the Moon is Illuminated

Today's Extremes

State Highs State Lows

Community

WunderPhotos

Upload Photos

1,956,259 photos uploaded!

WunderBlog® & News

Nearby

Air Quality

  Air Quality AQ Index Pollutant
Not available.

Snow Depth

Station Depth Elevation

Earthquake Activity

City Distance Mag. Time & Date
Minimum magnitude displayed is 2.5.

Coastal Water Temperatures

Place Temperature

Stations

Nearby Weather Stations

Station Location Temp. Windchill Dew Point Humidity Wind Precip. Elev Updated Type
                   

Watches & Warnings

There are currently no watches in effect.